createdAt,value
2022-08-08T00:02:03.749Z,24.10
2022-08-08T00:04:56.442Z,24.12
2022-08-08T00:07:33.715Z,24.05
2022-08-08T00:10:12.302Z,24.06
2022-08-08T00:12:56.598Z,23.95
2022-08-08T00:15:57.707Z,23.90
2022-08-08T00:18:28.582Z,23.87
2022-08-08T00:21:01.231Z,23.90
2022-08-08T00:23:47.615Z,23.86
2022-08-08T00:26:26.148Z,23.60
2022-08-08T00:29:03.178Z,23.58
2022-08-08T00:32:20.711Z,23.71
2022-08-08T00:34:57.844Z,23.81
2022-08-08T00:37:47.147Z,23.78
2022-08-08T00:41:11.393Z,23.72
2022-08-08T00:43:59.198Z,23.69
2022-08-08T00:46:58.919Z,23.68
2022-08-08T00:49:59.016Z,23.77
2022-08-08T00:52:53.993Z,23.70
2022-08-08T00:55:59.213Z,23.68
2022-08-08T00:59:00.690Z,23.58
2022-08-08T01:02:06.647Z,23.51
2022-08-08T01:05:58.671Z,23.47
2022-08-08T01:09:36.470Z,23.44
2022-08-08T01:12:19.977Z,23.43
2022-08-08T01:15:54.141Z,23.39
2022-08-08T01:18:57.754Z,23.39
2022-08-08T01:22:15.615Z,23.29
2022-08-08T01:24:59.775Z,23.17
2022-08-08T01:27:44.508Z,23.17
2022-08-08T01:30:53.715Z,23.24
2022-08-08T01:34:01.539Z,23.10
2022-08-08T01:37:21.833Z,23.11
2022-08-08T01:40:17.708Z,22.84
2022-08-08T01:43:25.257Z,22.61
2022-08-08T01:46:38.547Z,22.68
2022-08-08T01:49:23.437Z,22.60
2022-08-08T01:53:28.895Z,22.84
2022-08-08T01:56:26.608Z,22.92
2022-08-08T01:58:39.827Z,23.02
2022-08-08T02:02:04.917Z,23.01
2022-08-08T02:04:45.135Z,22.98
2022-08-08T02:07:41.503Z,22.99
2022-08-08T02:10:29.915Z,22.90
2022-08-08T02:13:54.379Z,22.62
2022-08-08T02:16:12.219Z,22.47
2022-08-08T02:18:59.510Z,22.29
2022-08-08T02:21:53.771Z,22.25
2022-08-08T02:24:26.167Z,22.41
2022-08-08T02:27:01.389Z,22.43
2022-08-08T02:29:52.723Z,22.45
2022-08-08T02:32:34.074Z,22.54
2022-08-08T02:35:18.304Z,22.11
2022-08-08T02:38:30.051Z,22.14
2022-08-08T02:42:04.206Z,22.10
2022-08-08T02:44:43.121Z,22.03
2022-08-08T02:48:07.820Z,21.93
2022-08-08T02:51:11.953Z,21.87
2022-08-08T02:54:15.603Z,21.81
2022-08-08T02:57:12.337Z,21.93
2022-08-08T03:00:31.792Z,22.17
2022-08-08T03:03:15.988Z,22.24
2022-08-08T03:06:30.628Z,22.33
2022-08-08T03:09:54.745Z,22.43
2022-08-08T03:13:01.712Z,22.47
2022-08-08T03:16:07.265Z,22.53
2022-08-08T03:18:54.672Z,22.52
2022-08-08T03:21:26.760Z,22.44
2022-08-08T03:24:07.176Z,22.50
2022-08-08T03:26:44.413Z,22.49
2022-08-08T03:29:26.963Z,22.45
2022-08-08T03:32:29.191Z,22.33
2022-08-08T03:34:57.846Z,22.44
2022-08-08T03:37:59.675Z,22.37
2022-08-08T03:40:30.431Z,22.35
2022-08-08T03:43:16.518Z,22.31
2022-08-08T03:46:04.883Z,22.31
2022-08-08T03:49:54.905Z,22.23
2022-08-08T03:51:50.697Z,22.16
2022-08-08T03:54:41.138Z,21.98
2022-08-08T03:58:30.934Z,21.96
2022-08-08T04:00:07.662Z,22.06
2022-08-08T04:02:47.536Z,21.99
2022-08-08T04:05:27.458Z,22.00
2022-08-08T04:07:58.386Z,22.03
2022-08-08T04:10:31.689Z,22.08
2022-08-08T04:13:08.227Z,22.08
2022-08-08T04:15:55.149Z,22.00
2022-08-08T04:18:39.367Z,22.07
2022-08-08T04:21:11.601Z,22.13
2022-08-08T04:24:05.704Z,22.16
2022-08-08T04:26:35.591Z,22.21
2022-08-08T04:29:15.278Z,22.36
2022-08-08T04:31:58.771Z,22.36
2022-08-08T04:34:32.194Z,22.38
2022-08-08T04:37:11.437Z,22.37
2022-08-08T04:40:04.670Z,22.32
2022-08-08T04:42:27.246Z,22.34
2022-08-08T04:44:55.640Z,22.41
2022-08-08T04:47:24.315Z,22.38
2022-08-08T04:50:01.289Z,22.34
2022-08-08T04:52:35.354Z,22.65
2022-08-08T04:55:06.698Z,22.63
2022-08-08T04:57:34.740Z,22.62
2022-08-08T05:00:04.887Z,22.82
2022-08-08T05:02:31.945Z,22.91
2022-08-08T05:05:00.179Z,22.84
2022-08-08T05:07:35.315Z,22.89
2022-08-08T05:10:11.228Z,23.04
2022-08-08T05:12:59.799Z,23.02
2022-08-08T05:16:48.116Z,23.22
2022-08-08T05:18:15.261Z,23.49
2022-08-08T05:20:50.126Z,24.02
2022-08-08T05:23:19.766Z,25.52
2022-08-08T05:25:49.553Z,27.58
2022-08-08T05:28:48.410Z,29.58
2022-08-08T05:31:19.510Z,31.62
2022-08-08T05:33:52.551Z,33.61
2022-08-08T05:36:28.045Z,34.78
2022-08-08T05:38:58.529Z,35.91
2022-08-08T05:41:26.232Z,36.95
2022-08-08T05:44:31.258Z,37.27
2022-08-08T05:47:02.962Z,37.63
2022-08-08T05:49:31.139Z,38.30
2022-08-08T05:51:58.062Z,39.37
2022-08-08T05:54:43.274Z,40.01
2022-08-08T05:57:16.438Z,40.17
2022-08-08T06:00:23.669Z,41.08
2022-08-08T06:03:17.370Z,41.69
2022-08-08T06:06:01.188Z,40.97
2022-08-08T06:08:53.218Z,41.37
2022-08-08T06:11:22.375Z,41.02
2022-08-08T06:13:54.968Z,41.87
2022-08-08T06:16:27.390Z,41.62
2022-08-08T06:19:35.233Z,42.36
2022-08-08T06:22:32.040Z,42.99
2022-08-08T06:24:53.443Z,43.07
2022-08-08T06:27:38.707Z,43.16
2022-08-08T06:30:11.956Z,43.82
2022-08-08T06:32:53.350Z,41.37
2022-08-08T06:36:04.160Z,40.58
2022-08-08T06:38:14.489Z,39.60
2022-08-08T06:40:48.742Z,39.79
2022-08-08T06:43:33.691Z,40.54
2022-08-08T06:46:09.059Z,40.98
2022-08-08T06:48:36.622Z,41.30
2022-08-08T06:51:07.824Z,41.85
2022-08-08T06:53:39.476Z,41.68
2022-08-08T06:56:18.169Z,41.97
2022-08-08T06:58:50.257Z,42.42
2022-08-08T07:02:18.271Z,43.06
2022-08-08T07:04:45.390Z,42.93
2022-08-08T07:07:32.870Z,42.47
2022-08-08T07:10:08.364Z,41.73
2022-08-08T07:12:48.362Z,42.94
2022-08-08T07:16:06.229Z,42.70
2022-08-08T07:18:49.838Z,43.24
2022-08-08T07:21:22.354Z,43.51
2022-08-08T07:24:05.658Z,41.81
2022-08-08T07:26:46.878Z,41.43
2022-08-08T07:30:00.273Z,42.50
2022-08-08T07:32:15.670Z,43.09
2022-08-08T07:35:00.058Z,43.23
2022-08-08T07:37:55.995Z,43.40
2022-08-08T07:40:29.521Z,42.83
2022-08-08T07:43:00.942Z,43.26
2022-08-08T07:45:34.404Z,43.79
2022-08-08T07:48:14.971Z,44.33
2022-08-08T07:50:44.207Z,42.72
2022-08-08T07:54:01.870Z,42.18
2022-08-08T07:56:37.324Z,41.30
2022-08-08T07:59:14.898Z,41.13
2022-08-08T08:02:36.219Z,40.12
2022-08-08T08:04:49.095Z,41.33
2022-08-08T08:07:26.112Z,42.35
2022-08-08T08:10:03.727Z,41.99
2022-08-08T08:12:41.373Z,42.67
2022-08-08T08:15:12.145Z,42.24
2022-08-08T08:17:49.120Z,41.94
2022-08-08T08:20:29.852Z,41.51
2022-08-08T08:23:01.035Z,41.84
2022-08-08T08:25:42.752Z,42.11
2022-08-08T08:28:21.531Z,41.32
2022-08-08T08:30:53.913Z,41.76
2022-08-08T08:33:23.417Z,41.31
2022-08-08T08:36:20.454Z,41.35
2022-08-08T08:38:49.595Z,41.83
2022-08-08T08:41:22.204Z,41.71
2022-08-08T08:43:52.129Z,41.68
2022-08-08T08:46:20.067Z,40.81
2022-08-08T08:48:55.721Z,40.64
2022-08-08T08:51:26.882Z,40.66
2022-08-08T08:54:02.037Z,40.20
2022-08-08T08:56:36.525Z,39.65
2022-08-08T08:59:15.379Z,39.74
2022-08-08T09:01:51.872Z,39.94
2022-08-08T09:04:38.790Z,39.88
2022-08-08T09:07:22.553Z,39.91
2022-08-08T09:09:57.110Z,40.09
2022-08-08T09:12:28.613Z,40.19
2022-08-08T09:14:58.296Z,40.03
2022-08-08T09:17:40.718Z,39.28
2022-08-08T09:22:01.638Z,38.94
2022-08-08T09:23:01.267Z,38.28
2022-08-08T09:25:36.200Z,38.46
2022-08-08T09:28:30.802Z,37.10
2022-08-08T09:31:12.640Z,37.37
2022-08-08T09:34:14.490Z,36.78
2022-08-08T09:36:36.029Z,36.64
2022-08-08T09:39:15.508Z,36.89
2022-08-08T09:42:21.127Z,36.52
2022-08-08T09:44:49.005Z,37.13
2022-08-08T09:47:26.966Z,37.31
2022-08-08T09:50:11.521Z,37.56
2022-08-08T09:52:55.776Z,37.22
2022-08-08T09:56:03.547Z,37.24
2022-08-08T09:58:25.824Z,38.00
2022-08-08T10:00:57.426Z,36.51
2022-08-08T10:03:27.924Z,37.18
2022-08-08T10:05:58.530Z,36.73
2022-08-08T10:08:26.142Z,37.77
2022-08-08T10:10:59.439Z,37.57
2022-08-08T10:13:35.908Z,37.86
2022-08-08T10:16:05.786Z,37.51
2022-08-08T10:18:34.829Z,37.67
2022-08-08T10:21:26.026Z,38.18
2022-08-08T10:24:02.825Z,38.48
2022-08-08T10:26:59.430Z,38.59
2022-08-08T10:29:58.600Z,38.24
2022-08-08T10:32:48.776Z,37.71
2022-08-08T10:36:09.405Z,37.18
2022-08-08T10:38:16.208Z,37.38
2022-08-08T10:40:45.663Z,37.44
2022-08-08T10:43:12.789Z,36.37
2022-08-08T10:45:55.020Z,36.82
2022-08-08T10:48:57.738Z,37.39
2022-08-08T10:51:31.679Z,37.54
2022-08-08T10:54:08.129Z,37.81
2022-08-08T10:56:43.076Z,38.08
2022-08-08T10:59:14.353Z,38.37
2022-08-08T11:01:49.439Z,39.13
2022-08-08T11:04:38.535Z,39.51
2022-08-08T11:07:07.059Z,40.20
2022-08-08T11:09:34.391Z,40.68
2022-08-08T11:12:12.323Z,40.77
2022-08-08T11:14:54.423Z,40.70
2022-08-08T11:17:58.594Z,40.32
2022-08-08T11:20:14.263Z,40.40
2022-08-08T11:22:49.899Z,41.18
2022-08-08T11:25:22.249Z,40.35
2022-08-08T11:28:13.084Z,39.49
2022-08-08T11:30:40.969Z,39.45
2022-08-08T11:33:20.003Z,40.02
2022-08-08T11:35:47.462Z,39.44
2022-08-08T11:38:36.754Z,39.16
2022-08-08T11:41:03.129Z,38.94
2022-08-08T11:43:38.884Z,37.83
2022-08-08T11:46:14.228Z,36.58
2022-08-08T11:48:47.075Z,36.40
2022-08-08T11:51:30.518Z,36.44
2022-08-08T11:54:04.928Z,35.75
2022-08-08T11:56:56.614Z,35.66
2022-08-08T11:59:58.401Z,36.30
2022-08-08T12:02:32.343Z,36.79
2022-08-08T12:05:02.355Z,36.72
2022-08-08T12:07:29.179Z,35.82
2022-08-08T12:10:11.061Z,36.30
2022-08-08T12:12:42.113Z,36.27
2022-08-08T12:15:25.930Z,36.17
2022-08-08T12:17:52.665Z,35.83
2022-08-08T12:20:19.670Z,36.83
2022-08-08T12:22:49.650Z,37.55
2022-08-08T12:25:29.725Z,38.01
2022-08-08T12:28:16.449Z,38.03
2022-08-08T12:30:47.946Z,37.43
2022-08-08T12:33:24.125Z,36.33
2022-08-08T12:36:12.241Z,36.26
2022-08-08T12:38:55.421Z,36.16
2022-08-08T12:41:35.088Z,36.34
2022-08-08T12:44:14.186Z,36.49
2022-08-08T12:47:00.076Z,36.09
2022-08-08T12:49:43.217Z,36.71
2022-08-08T12:52:28.397Z,36.59
2022-08-08T12:55:13.598Z,37.20
2022-08-08T12:57:49.885Z,36.82
2022-08-08T13:00:33.974Z,36.64
2022-08-08T13:03:07.280Z,36.53
2022-08-08T13:06:03.455Z,36.81
2022-08-08T13:08:21.798Z,36.40
2022-08-08T13:10:56.839Z,36.37
2022-08-08T13:13:35.825Z,36.08
2022-08-08T13:16:25.866Z,35.50
2022-08-08T13:18:57.239Z,34.92
2022-08-08T13:21:36.384Z,34.34
2022-08-08T13:24:18.744Z,34.38
2022-08-08T13:27:01.976Z,34.07
2022-08-08T13:29:38.005Z,33.40
2022-08-08T13:32:07.810Z,33.81
2022-08-08T13:34:39.972Z,33.95
2022-08-08T13:37:10.930Z,33.68
2022-08-08T13:39:55.466Z,33.47
2022-08-08T13:42:24.151Z,34.57
2022-08-08T13:44:55.805Z,34.71
2022-08-08T13:47:23.433Z,34.68
2022-08-08T13:50:37.543Z,33.60
2022-08-08T13:52:55.264Z,33.71
2022-08-08T13:55:29.023Z,34.86
2022-08-08T13:58:07.825Z,35.35
2022-08-08T14:00:45.141Z,35.67
2022-08-08T14:03:52.998Z,35.95
2022-08-08T14:06:32.526Z,35.63
2022-08-08T14:08:57.897Z,35.02
2022-08-08T14:11:30.161Z,35.43
2022-08-08T14:14:02.290Z,35.86
2022-08-08T14:16:31.885Z,35.66
2022-08-08T14:19:02.843Z,36.34
2022-08-08T14:21:54.897Z,37.06
2022-08-08T14:24:31.652Z,36.52
2022-08-08T14:26:58.297Z,35.94
2022-08-08T14:29:30.165Z,35.87
2022-08-08T14:32:12.840Z,35.93
2022-08-08T14:34:50.954Z,35.77
2022-08-08T14:37:18.465Z,36.30
2022-08-08T14:39:53.757Z,36.44
2022-08-08T14:42:34.735Z,36.42
2022-08-08T14:45:10.024Z,36.29
2022-08-08T14:48:00.818Z,35.74
2022-08-08T14:50:38.974Z,35.77
2022-08-08T14:53:09.946Z,34.52
2022-08-08T14:55:42.096Z,34.60
2022-08-08T14:58:11.739Z,35.51
2022-08-08T15:00:43.342Z,35.49
2022-08-08T15:03:15.111Z,35.75
2022-08-08T15:05:53.983Z,35.52
2022-08-08T15:08:34.653Z,35.18
2022-08-08T15:11:10.483Z,35.22
2022-08-08T15:14:02.053Z,35.84
2022-08-08T15:16:28.047Z,36.21
2022-08-08T15:18:55.204Z,37.19
2022-08-08T15:21:22.324Z,37.50
2022-08-08T15:23:54.201Z,36.52
2022-08-08T15:26:20.998Z,36.54
2022-08-08T15:28:53.962Z,36.97
2022-08-08T15:31:49.046Z,36.79
2022-08-08T15:34:18.739Z,36.24
2022-08-08T15:37:02.085Z,35.97
2022-08-08T15:39:31.653Z,36.76
2022-08-08T15:42:06.914Z,36.79
2022-08-08T15:44:38.528Z,37.05
2022-08-08T15:47:07.131Z,37.01
2022-08-08T15:49:44.450Z,36.21
2022-08-08T15:52:16.197Z,36.52
2022-08-08T15:54:51.365Z,36.47
2022-08-08T15:57:19.007Z,36.05
2022-08-08T16:00:06.111Z,35.68
2022-08-08T16:02:43.795Z,36.24
2022-08-08T16:05:13.901Z,35.93
2022-08-08T16:07:52.700Z,35.43
2022-08-08T16:13:09.179Z,35.30
2022-08-08T16:13:43.402Z,35.93
2022-08-08T16:16:09.665Z,36.17
2022-08-08T16:18:44.506Z,36.24
2022-08-08T16:21:26.965Z,35.88
2022-08-08T16:23:55.515Z,36.26
2022-08-08T16:26:33.661Z,35.87
2022-08-08T16:29:08.960Z,34.78
2022-08-08T16:31:37.807Z,35.22
2022-08-08T16:34:04.440Z,34.68
2022-08-08T16:36:34.067Z,34.28
2022-08-08T16:39:09.870Z,33.53
2022-08-08T16:41:51.201Z,34.01
2022-08-08T16:44:27.594Z,34.07
2022-08-08T16:47:21.960Z,33.89
2022-08-08T16:50:13.587Z,34.41
2022-08-08T16:55:06.464Z,35.30
2022-08-08T16:55:53.219Z,35.42
2022-08-08T16:58:20.517Z,35.11
2022-08-08T17:00:49.162Z,34.21
2022-08-08T17:03:24.837Z,34.30
2022-08-08T17:06:35.680Z,33.78
2022-08-08T17:08:54.049Z,33.57
2022-08-08T17:11:20.719Z,33.88
2022-08-08T17:14:00.697Z,33.64
2022-08-08T17:16:28.604Z,33.70
2022-08-08T17:18:56.606Z,34.13
2022-08-08T17:21:26.220Z,33.87
2022-08-08T17:24:00.400Z,32.98
2022-08-08T17:26:29.814Z,33.07
2022-08-08T17:29:04.346Z,32.73
2022-08-08T17:31:45.655Z,32.69
2022-08-08T17:34:53.030Z,32.20
2022-08-08T17:37:06.702Z,32.29
2022-08-08T17:40:04.062Z,32.30
2022-08-08T17:42:23.078Z,32.08
2022-08-08T17:44:52.254Z,31.14
2022-08-08T17:47:27.272Z,31.50
2022-08-08T17:50:00.921Z,31.56
2022-08-08T17:52:35.541Z,31.47
2022-08-08T17:56:03.523Z,31.80
2022-08-08T17:57:52.214Z,31.17
2022-08-08T18:00:25.865Z,31.57
2022-08-08T18:03:07.533Z,31.39
2022-08-08T18:05:48.265Z,31.59
2022-08-08T18:08:24.456Z,31.78
2022-08-08T18:11:14.448Z,31.78
2022-08-08T18:13:43.245Z,31.75
2022-08-08T18:16:11.186Z,32.06
2022-08-08T18:18:45.188Z,31.66
2022-08-08T18:21:34.727Z,31.52
2022-08-08T18:23:59.133Z,31.61
2022-08-08T18:26:28.119Z,31.87
2022-08-08T18:28:55.888Z,31.81
2022-08-08T18:31:24.878Z,31.86
2022-08-08T18:34:11.865Z,31.68
2022-08-08T18:36:41.351Z,31.62
2022-08-08T18:39:27.318Z,31.72
2022-08-08T18:41:58.248Z,31.72
2022-08-08T18:44:27.580Z,31.78
2022-08-08T18:46:57.948Z,31.75
2022-08-08T18:49:32.716Z,31.71
2022-08-08T18:52:18.218Z,30.90
2022-08-08T18:55:00.686Z,31.33
2022-08-08T18:57:37.008Z,31.37
2022-08-08T19:00:15.927Z,31.74
2022-08-08T19:02:55.539Z,31.77
2022-08-08T19:05:32.054Z,31.71
2022-08-08T19:08:25.198Z,31.55
2022-08-08T19:10:58.548Z,31.41
2022-08-08T19:13:53.780Z,31.37
2022-08-08T19:16:15.031Z,31.34
2022-08-08T19:18:54.534Z,31.25
2022-08-08T19:21:30.943Z,31.23
2022-08-08T19:24:05.689Z,31.19
2022-08-08T19:26:34.840Z,31.37
2022-08-08T19:29:02.335Z,31.01
2022-08-08T19:31:31.715Z,31.02
2022-08-08T19:34:36.061Z,30.83
2022-08-08T19:36:58.574Z,30.79
2022-08-08T19:39:35.578Z,30.75
2022-08-08T19:42:07.142Z,30.42
2022-08-08T19:44:42.997Z,30.19
2022-08-08T19:47:13.303Z,30.25
2022-08-08T19:49:43.464Z,30.10
2022-08-08T19:52:35.569Z,30.32
2022-08-08T19:55:11.306Z,30.49
2022-08-08T19:57:42.494Z,30.41
2022-08-08T20:00:30.213Z,30.33
2022-08-08T20:03:15.049Z,30.28
2022-08-08T20:06:13.796Z,30.21
2022-08-08T20:08:36.273Z,30.03
2022-08-08T20:11:03.172Z,29.98
2022-08-08T20:14:31.545Z,29.63
2022-08-08T20:16:20.138Z,29.61
2022-08-08T20:18:52.655Z,29.58
2022-08-08T20:21:24.947Z,29.63
2022-08-08T20:23:58.201Z,29.38
2022-08-08T20:26:30.191Z,29.51
2022-08-08T20:29:00.838Z,29.53
2022-08-08T20:31:47.263Z,29.33
2022-08-08T20:34:30.573Z,29.39
2022-08-08T20:36:59.366Z,29.14
2022-08-08T20:39:26.922Z,29.06
2022-08-08T20:42:00.710Z,29.23
2022-08-08T20:44:27.431Z,29.24
2022-08-08T20:46:53.965Z,29.18
2022-08-08T20:49:21.887Z,28.95
2022-08-08T20:51:48.586Z,28.96
2022-08-08T20:54:27.410Z,28.96
2022-08-08T20:57:04.316Z,29.07
2022-08-08T20:59:42.021Z,29.08
2022-08-08T21:02:12.481Z,28.89
2022-08-08T21:04:40.508Z,28.96
2022-08-08T21:07:13.924Z,28.89
2022-08-08T21:10:01.532Z,28.58
2022-08-08T21:12:32.441Z,28.60
2022-08-08T21:15:07.027Z,28.41
2022-08-08T21:17:35.309Z,28.42
2022-08-08T21:20:04.060Z,28.27
2022-08-08T21:22:30.860Z,28.29
2022-08-08T21:24:58.344Z,28.21
2022-08-08T21:27:38.980Z,28.27
2022-08-08T21:30:18.545Z,28.17
2022-08-08T21:32:51.739Z,28.21
2022-08-08T21:36:14.923Z,27.86
2022-08-08T21:38:16.343Z,27.78
2022-08-08T21:40:56.314Z,27.75
2022-08-08T21:43:34.342Z,27.87
2022-08-08T21:48:03.820Z,27.62
2022-08-08T21:48:55.593Z,27.53
2022-08-08T21:54:18.118Z,27.50
2022-08-08T21:54:27.209Z,27.46
2022-08-08T21:57:01.232Z,27.39
2022-08-08T22:00:02.836Z,27.33
2022-08-08T22:02:19.615Z,27.21
2022-08-08T22:04:51.927Z,27.54
2022-08-08T22:07:19.149Z,27.70
2022-08-08T22:09:45.876Z,27.72
2022-08-08T22:12:14.942Z,27.76
2022-08-08T22:14:44.308Z,27.64
2022-08-08T22:17:16.566Z,27.53
2022-08-08T22:20:12.962Z,27.57
2022-08-08T22:22:34.555Z,27.25
2022-08-08T22:25:17.798Z,27.31
2022-08-08T22:28:04.352Z,27.22
2022-08-08T22:30:40.623Z,27.21
2022-08-08T22:33:22.123Z,27.22
2022-08-08T22:36:04.117Z,27.09
2022-08-08T22:38:48.868Z,27.15
2022-08-08T22:41:21.135Z,27.01
2022-08-08T22:44:02.318Z,27.02
2022-08-08T22:46:34.505Z,26.92
2022-08-08T22:49:06.102Z,26.93
2022-08-08T22:51:34.782Z,26.73
2022-08-08T22:54:32.898Z,26.73
2022-08-08T22:56:56.151Z,26.31
2022-08-08T22:59:22.827Z,26.30
2022-08-08T23:02:04.017Z,26.16
2022-08-08T23:04:32.338Z,26.00
2022-08-08T23:07:02.783Z,26.26
2022-08-08T23:09:31.085Z,26.08
2022-08-08T23:12:27.966Z,25.82
2022-08-08T23:14:59.804Z,25.82
2022-08-08T23:17:29.988Z,25.94
2022-08-08T23:19:56.800Z,25.97
2022-08-08T23:22:23.685Z,26.09
2022-08-08T23:24:50.670Z,25.76
2022-08-08T23:27:38.128Z,25.79
2022-08-08T23:30:06.036Z,26.04
2022-08-08T23:32:36.118Z,25.80
2022-08-08T23:35:12.671Z,26.06
2022-08-08T23:38:02.042Z,26.11
2022-08-08T23:40:30.979Z,25.94
2022-08-08T23:42:57.946Z,25.89
2022-08-08T23:49:00.210Z,25.76
2022-08-08T23:49:05.194Z,25.65
2022-08-08T23:50:58.873Z,25.44
2022-08-08T23:53:55.646Z,25.56
2022-08-08T23:56:13.639Z,25.64
2022-08-08T23:58:50.516Z,25.53
